createdAt,value
2018-06-10T00:00:37.225Z,14.65
2018-06-10T00:03:05.609Z,13.13
2018-06-10T00:05:33.769Z,14.43
2018-06-10T00:08:01.941Z,15.00
2018-06-10T00:10:30.093Z,14.35
2018-06-10T00:12:58.064Z,11.40
2018-06-10T00:15:26.246Z,17.07
2018-06-10T00:17:54.424Z,14.00
2018-06-10T00:20:22.590Z,10.97
2018-06-10T00:22:50.752Z,18.82
2018-06-10T00:25:18.930Z,13.08
2018-06-10T00:27:47.105Z,21.62
2018-06-10T00:30:15.277Z,14.53
2018-06-10T00:32:43.437Z,16.07
2018-06-10T00:35:11.594Z,16.35
2018-06-10T00:37:39.764Z,16.70
2018-06-10T00:40:07.928Z,15.30
2018-06-10T00:42:36.080Z,23.22
2018-06-10T00:45:04.253Z,19.23
2018-06-10T00:47:32.426Z,18.15
2018-06-10T00:50:00.630Z,20.70
2018-06-10T00:52:28.788Z,21.35
2018-06-10T00:54:56.957Z,22.23
2018-06-10T00:57:25.109Z,14.30
2018-06-10T00:59:53.297Z,15.80
2018-06-10T01:02:21.929Z,13.93
2018-06-10T01:04:50.130Z,15.88
2018-06-10T01:07:18.305Z,16.15
2018-06-10T01:09:46.497Z,15.83
2018-06-10T01:12:14.647Z,12.55
2018-06-10T01:14:42.814Z,15.50
2018-06-10T01:17:10.981Z,15.00
2018-06-10T01:19:39.175Z,21.12
2018-06-10T01:22:07.337Z,12.75
2018-06-10T01:24:35.493Z,19.35
2018-06-10T01:27:03.653Z,19.77
2018-06-10T01:29:31.875Z,16.32
2018-06-10T01:32:00.056Z,17.80
2018-06-10T01:34:28.242Z,18.07
2018-06-10T01:36:56.413Z,15.10
2018-06-10T01:39:24.589Z,19.10
2018-06-10T01:41:52.764Z,19.73
2018-06-10T01:44:20.954Z,18.00
2018-06-10T01:46:49.142Z,16.97
2018-06-10T01:49:17.321Z,22.05
2018-06-10T01:51:45.478Z,25.67
2018-06-10T01:54:13.630Z,19.92
2018-06-10T01:56:41.797Z,23.22
2018-06-10T01:59:09.974Z,23.22
2018-06-10T02:01:38.134Z,22.10
2018-06-10T02:04:06.285Z,22.95
2018-06-10T02:06:34.458Z,22.15
2018-06-10T02:09:02.649Z,23.02
2018-06-10T02:11:30.808Z,24.70
2018-06-10T02:13:58.971Z,31.65
2018-06-10T02:16:27.117Z,23.42
2018-06-10T02:18:55.313Z,26.37
2018-06-10T02:21:23.493Z,27.42
2018-06-10T02:23:51.642Z,30.95
2018-06-10T02:26:19.813Z,28.27
2018-06-10T02:28:47.954Z,29.27
2018-06-10T02:31:16.134Z,28.57
2018-06-10T02:33:44.286Z,25.85
2018-06-10T02:36:12.442Z,22.50
2018-06-10T02:38:40.598Z,31.73
2018-06-10T02:41:08.762Z,27.75
2018-06-10T02:43:36.918Z,25.82
2018-06-10T02:46:05.149Z,23.80
2018-06-10T02:48:33.303Z,25.05
2018-06-10T02:51:01.500Z,21.43
2018-06-10T02:53:29.691Z,19.57
2018-06-10T02:55:57.885Z,22.50
2018-06-10T02:58:26.057Z,26.57
2018-06-10T03:00:54.226Z,22.98
2018-06-10T03:03:22.401Z,27.37
2018-06-10T03:05:50.592Z,23.00
2018-06-10T03:08:18.818Z,25.12
2018-06-10T03:10:47.026Z,23.45
2018-06-10T03:13:15.186Z,23.12
2018-06-10T03:15:43.358Z,21.93
2018-06-10T03:18:11.561Z,25.55
2018-06-10T03:20:39.737Z,27.60
2018-06-10T03:23:07.921Z,27.95
2018-06-10T03:25:36.086Z,34.80
2018-06-10T03:28:04.285Z,36.70
2018-06-10T03:30:32.509Z,28.47
2018-06-10T03:33:00.682Z,31.37
2018-06-10T03:35:28.882Z,30.72
2018-06-10T03:37:57.062Z,34.43
2018-06-10T03:40:25.234Z,27.73
2018-06-10T03:42:53.414Z,28.50
2018-06-10T03:45:21.577Z,32.45
2018-06-10T03:47:49.774Z,38.02
2018-06-10T03:50:17.958Z,33.85
2018-06-10T03:52:46.110Z,30.85
2018-06-10T03:55:14.318Z,35.63
2018-06-10T03:57:42.469Z,31.60
2018-06-10T04:00:10.629Z,29.70
2018-06-10T04:02:38.794Z,27.65
2018-06-10T04:05:06.942Z,25.43
2018-06-10T04:07:35.141Z,38.02
2018-06-10T04:10:03.290Z,28.27
2018-06-10T04:12:31.749Z,29.85
2018-06-10T04:14:59.958Z,32.03
2018-06-10T04:17:28.131Z,28.57
2018-06-10T04:19:56.295Z,36.65
2018-06-10T04:22:24.212Z,31.03
2018-06-10T04:24:52.382Z,36.93
2018-06-10T04:27:20.302Z,32.00
2018-06-10T04:29:48.458Z,35.45
2018-06-10T04:32:16.622Z,31.62
2018-06-10T04:34:44.785Z,33.15
2018-06-10T04:37:12.930Z,28.27
2018-06-10T04:39:41.150Z,30.50
2018-06-10T04:42:09.289Z,31.37
2018-06-10T04:44:37.470Z,25.45
2018-06-10T04:47:05.698Z,23.20
2018-06-10T04:49:33.825Z,24.17
2018-06-10T04:52:01.994Z,29.18
2018-06-10T04:54:31.049Z,24.07
2018-06-10T04:56:59.226Z,27.07
2018-06-10T04:59:27.417Z,24.50
2018-06-10T05:01:55.581Z,28.10
2018-06-10T05:04:23.773Z,25.80
2018-06-10T05:06:51.951Z,25.27
2018-06-10T05:09:20.134Z,25.10
2018-06-10T05:11:48.319Z,22.00
2018-06-10T05:14:16.498Z,26.60
2018-06-10T05:16:44.690Z,29.15
2018-06-10T05:19:12.856Z,21.95
2018-06-10T05:21:41.028Z,26.57
2018-06-10T05:24:09.233Z,22.13
2018-06-10T05:26:37.399Z,23.37
2018-06-10T05:29:05.601Z,23.13
2018-06-10T05:31:33.770Z,25.17
2018-06-10T05:34:01.932Z,17.33
2018-06-10T05:36:30.099Z,15.70
2018-06-10T05:38:58.251Z,16.47
2018-06-10T05:41:26.425Z,15.37
2018-06-10T05:43:54.585Z,19.43
2018-06-10T05:46:22.757Z,18.67
2018-06-10T05:48:50.922Z,23.53
2018-06-10T05:51:19.105Z,14.73
2018-06-10T05:53:47.234Z,15.10
2018-06-10T05:56:15.390Z,24.53
2018-06-10T05:58:43.529Z,20.90
2018-06-10T06:01:11.680Z,15.57
2018-06-10T06:03:39.823Z,14.73
2018-06-10T06:06:07.974Z,24.63
2018-06-10T06:08:36.121Z,20.20
2018-06-10T06:11:04.270Z,18.80
2018-06-10T06:13:32.439Z,17.17
2018-06-10T06:16:00.586Z,21.45
2018-06-10T06:18:28.761Z,18.23
2018-06-10T06:20:56.917Z,14.47
2018-06-10T06:23:25.090Z,16.45
2018-06-10T06:25:53.238Z,15.78
2018-06-10T06:28:21.414Z,18.87
2018-06-10T06:30:49.574Z,23.77
2018-06-10T06:33:17.771Z,15.48
2018-06-10T06:35:45.873Z,17.85
2018-06-10T06:38:14.081Z,18.95
2018-06-10T06:40:42.245Z,18.98
2018-06-10T06:43:10.409Z,18.05
2018-06-10T06:45:38.550Z,26.65
2018-06-10T06:48:06.754Z,19.52
2018-06-10T06:50:34.940Z,17.95
2018-06-10T06:53:03.126Z,17.00
2018-06-10T06:55:31.322Z,17.95
2018-06-10T06:57:59.559Z,19.85
2018-06-10T07:00:27.715Z,18.40
2018-06-10T07:02:55.926Z,23.30
2018-06-10T07:05:24.089Z,16.82
2018-06-10T07:07:52.294Z,22.50
2018-06-10T07:10:20.490Z,18.73
2018-06-10T07:12:48.661Z,19.70
2018-06-10T07:15:16.829Z,21.52
2018-06-10T07:17:45.015Z,18.17
2018-06-10T07:20:13.202Z,22.50
2018-06-10T07:22:41.373Z,18.32
2018-06-10T07:25:09.562Z,15.55
2018-06-10T07:27:37.741Z,30.57
2018-06-10T07:30:05.930Z,17.77
2018-06-10T07:32:34.106Z,20.40
2018-06-10T07:35:02.301Z,22.22
2018-06-10T07:37:30.466Z,18.48
2018-06-10T07:39:58.639Z,18.23
2018-06-10T07:42:26.802Z,16.25
2018-06-10T07:44:55.031Z,21.60
2018-06-10T07:47:23.245Z,18.07
2018-06-10T07:49:51.429Z,19.97
2018-06-10T07:52:19.625Z,18.02
2018-06-10T07:54:47.806Z,21.60
2018-06-10T07:57:16.025Z,22.65
2018-06-10T07:59:44.210Z,17.83
2018-06-10T08:02:12.394Z,18.57
2018-06-10T08:04:40.586Z,20.02
2018-06-10T08:07:08.753Z,23.10
2018-06-10T08:09:36.938Z,21.23
2018-06-10T08:12:05.131Z,19.70
2018-06-10T08:14:33.342Z,16.60
2018-06-10T08:17:01.521Z,20.60
2018-06-10T08:19:29.702Z,17.15
2018-06-10T08:21:57.894Z,17.98
2018-06-10T08:24:26.070Z,17.10
2018-06-10T08:26:54.254Z,18.80
2018-06-10T08:29:22.438Z,19.55
2018-06-10T08:31:50.611Z,22.05
2018-06-10T08:34:18.801Z,18.23
2018-06-10T08:36:46.970Z,19.45
2018-06-10T08:39:15.177Z,17.55
2018-06-10T08:41:43.367Z,15.23
2018-06-10T08:44:11.623Z,19.30
2018-06-10T08:46:39.733Z,15.95
2018-06-10T08:49:07.915Z,17.40
2018-06-10T08:51:36.106Z,20.57
2018-06-10T08:54:04.269Z,18.35
2018-06-10T08:56:32.490Z,22.93
2018-06-10T08:59:00.677Z,20.50
2018-06-10T09:01:28.886Z,15.95
2018-06-10T09:03:56.812Z,15.50
2018-06-10T09:06:24.999Z,16.85
2018-06-10T09:08:53.236Z,18.60
2018-06-10T09:11:21.361Z,16.45
2018-06-10T09:13:49.558Z,18.60
2018-06-10T09:16:17.754Z,17.50
2018-06-10T09:18:45.956Z,15.80
2018-06-10T09:21:14.154Z,15.43
2018-06-10T09:23:42.360Z,13.38
2018-06-10T09:26:10.513Z,14.60
2018-06-10T09:28:38.698Z,19.65
2018-06-10T09:31:06.893Z,14.90
2018-06-10T09:33:35.070Z,16.30
2018-06-10T09:36:02.994Z,15.70
2018-06-10T09:38:31.193Z,22.45
2018-06-10T09:40:59.366Z,14.10
2018-06-10T09:43:27.551Z,16.60
2018-06-10T09:45:55.747Z,14.13
2018-06-10T09:48:23.922Z,15.95
2018-06-10T09:50:52.105Z,15.40
2018-06-10T09:53:20.370Z,13.88
2018-06-10T09:55:48.543Z,14.07
2018-06-10T09:58:16.725Z,16.03
2018-06-10T10:00:44.906Z,16.55
2018-06-10T10:03:13.087Z,12.55
2018-06-10T10:05:41.262Z,12.80
2018-06-10T10:08:09.454Z,15.23
2018-06-10T10:10:37.674Z,12.82
2018-06-10T10:13:05.874Z,13.33
2018-06-10T10:15:34.042Z,12.18
2018-06-10T10:18:02.231Z,12.43
2018-06-10T10:20:30.409Z,12.85
2018-06-10T10:22:58.634Z,13.90
2018-06-10T10:25:26.844Z,11.83
2018-06-10T10:27:55.002Z,9.80
2018-06-10T10:30:23.182Z,12.73
2018-06-10T10:32:51.373Z,13.60
2018-06-10T10:35:19.555Z,13.32
2018-06-10T10:37:47.714Z,8.70
2018-06-10T10:40:15.919Z,8.00
2018-06-10T10:42:44.094Z,13.08
2018-06-10T10:45:12.277Z,11.35
2018-06-10T10:47:40.469Z,12.15
2018-06-10T10:50:08.634Z,13.05
2018-06-10T10:52:36.790Z,11.83
2018-06-10T10:55:04.954Z,9.35
2018-06-10T10:57:33.094Z,15.20
2018-06-10T11:00:01.275Z,22.30
2018-06-10T13:17:40.933Z,9.70
2018-06-10T13:20:09.126Z,9.13
2018-06-10T13:22:37.305Z,8.18
2018-06-10T13:25:05.494Z,11.48
2018-06-10T13:27:33.721Z,6.20
2018-06-10T13:30:01.850Z,6.00
2018-06-10T13:32:30.040Z,7.15
2018-06-10T13:34:58.206Z,7.47
2018-06-10T13:37:26.385Z,6.63
2018-06-10T13:39:54.550Z,6.28
2018-06-10T13:42:22.748Z,5.90
2018-06-10T13:44:50.925Z,5.87
2018-06-10T13:47:19.110Z,8.63
2018-06-10T13:49:47.302Z,7.00
2018-06-10T13:52:15.488Z,5.10
2018-06-10T13:54:43.677Z,5.53
2018-06-10T13:57:11.873Z,5.33
2018-06-10T13:59:40.050Z,8.55
2018-06-10T14:02:08.448Z,5.00
2018-06-10T14:04:36.624Z,5.10
2018-06-10T14:07:04.794Z,6.13
2018-06-10T14:09:32.979Z,6.00
2018-06-10T14:12:01.158Z,8.08
2018-06-10T14:14:29.335Z,5.53
2018-06-10T14:16:57.510Z,5.62
2018-06-10T14:19:25.685Z,6.62
2018-06-10T14:21:53.849Z,7.55
2018-06-10T14:24:22.013Z,5.33
2018-06-10T14:26:50.216Z,12.43
2018-06-10T14:29:18.378Z,5.30
2018-06-10T14:31:46.561Z,5.43
2018-06-10T14:34:14.725Z,6.00
2018-06-10T14:36:42.913Z,6.53
2018-06-10T14:39:11.090Z,8.55
2018-06-10T14:41:39.262Z,5.20
2018-06-10T14:44:07.442Z,6.37
2018-06-10T14:46:35.621Z,6.33
2018-06-10T14:49:03.808Z,6.10
2018-06-10T14:51:31.990Z,6.90
2018-06-10T14:54:00.178Z,5.90
2018-06-10T14:56:28.346Z,6.17
2018-06-10T14:58:56.529Z,6.07
2018-06-10T15:01:24.698Z,6.83
2018-06-10T15:03:52.898Z,7.58
2018-06-10T15:06:21.142Z,5.08
2018-06-10T15:08:49.314Z,6.10
2018-06-10T15:11:17.492Z,5.42
2018-06-10T15:13:45.677Z,5.17
2018-06-10T15:16:13.866Z,5.35
2018-06-10T15:18:42.036Z,4.67
2018-06-10T15:21:10.219Z,5.20
2018-06-10T15:23:38.405Z,4.80
2018-06-10T15:26:06.578Z,4.92
2018-06-10T15:28:34.757Z,6.47
2018-06-10T15:31:02.933Z,5.58
2018-06-10T15:33:31.094Z,4.65
2018-06-10T15:35:59.274Z,4.30
2018-06-10T15:38:27.469Z,6.30
2018-06-10T15:40:55.642Z,4.30
2018-06-10T15:43:23.826Z,4.10
2018-06-10T15:45:51.994Z,3.52
2018-06-10T15:48:20.182Z,6.90
2018-06-10T15:50:48.339Z,4.30
2018-06-10T15:53:16.485Z,4.27
2018-06-10T15:55:44.645Z,4.22
2018-06-10T15:58:12.804Z,7.58
2018-06-10T16:00:40.966Z,4.47
2018-06-10T16:03:09.129Z,5.60
2018-06-10T16:05:37.269Z,4.03
2018-06-10T16:08:05.445Z,7.27
2018-06-10T16:10:33.585Z,3.80
2018-06-10T16:13:01.750Z,9.68
2018-06-10T16:15:29.898Z,5.08
2018-06-10T16:17:58.050Z,4.10
2018-06-10T16:20:26.235Z,6.75
2018-06-10T16:22:54.382Z,3.80
2018-06-10T16:25:22.533Z,4.50
2018-06-10T16:27:50.705Z,4.92
2018-06-10T16:30:18.854Z,6.15
2018-06-10T16:32:47.003Z,7.27
2018-06-10T16:35:15.211Z,5.50
2018-06-10T16:37:43.394Z,8.73
2018-06-10T16:40:11.562Z,4.87
2018-06-10T16:42:39.707Z,5.17
2018-06-10T16:45:07.883Z,6.05
2018-06-10T16:47:36.030Z,5.87
2018-06-10T16:50:04.285Z,6.90
2018-06-10T16:52:32.446Z,4.78
2018-06-10T16:55:00.597Z,7.87
2018-06-10T16:57:28.757Z,9.47
2018-06-10T16:59:56.929Z,6.75
2018-06-10T17:02:25.069Z,5.50
2018-06-10T17:04:53.253Z,7.03
2018-06-10T17:07:21.414Z,5.08
2018-06-10T17:09:49.574Z,7.00
2018-06-10T17:12:17.777Z,5.90
2018-06-10T17:14:45.918Z,7.05
2018-06-10T17:17:14.086Z,7.60
2018-06-10T17:19:42.242Z,5.97
2018-06-10T17:22:10.385Z,5.97
2018-06-10T17:24:38.551Z,7.37
2018-06-10T17:27:06.698Z,6.40
2018-06-10T17:29:34.848Z,5.90
2018-06-10T17:32:03.031Z,6.60
2018-06-10T17:34:31.163Z,5.80
2018-06-10T17:36:59.318Z,8.60
2018-06-10T17:39:27.478Z,6.00
2018-06-10T17:41:55.660Z,5.92
2018-06-10T17:44:23.842Z,6.03
2018-06-10T17:46:51.992Z,12.68
2018-06-10T17:49:20.150Z,13.50
2018-06-10T17:51:48.314Z,9.78
2018-06-10T17:54:16.461Z,10.15
2018-06-10T17:56:44.662Z,6.97
2018-06-10T17:59:12.869Z,6.70
2018-06-10T18:01:40.959Z,6.17
2018-06-10T18:04:09.112Z,7.30
2018-06-10T18:06:37.290Z,12.40
2018-06-10T18:09:07.446Z,7.15
2018-06-10T18:11:35.632Z,9.43
2018-06-10T18:14:04.315Z,9.53
2018-06-10T18:16:32.417Z,9.68
2018-06-10T18:19:00.605Z,9.20
2018-06-10T18:21:28.746Z,9.28
2018-06-10T18:23:56.885Z,10.00
2018-06-10T18:26:25.082Z,8.00
2018-06-10T18:28:53.225Z,8.08
2018-06-10T18:31:21.380Z,8.27
2018-06-10T18:33:49.530Z,11.05
2018-06-10T18:36:17.689Z,9.53
2018-06-10T18:38:45.865Z,8.88
2018-06-10T18:41:14.015Z,10.88
2018-06-10T18:43:42.181Z,8.00
2018-06-10T18:46:10.326Z,10.30
2018-06-10T18:48:38.481Z,12.60
2018-06-10T18:51:06.698Z,9.50
2018-06-10T18:53:34.890Z,10.90
2018-06-10T18:56:03.058Z,13.20
2018-06-10T18:58:31.238Z,14.33
2018-06-10T19:00:59.411Z,13.25
2018-06-10T19:03:27.607Z,10.70
2018-06-10T19:05:56.178Z,11.68
2018-06-10T19:08:24.728Z,11.75
2018-06-10T19:10:52.909Z,11.48
2018-06-10T19:13:21.077Z,15.68
2018-06-10T19:15:49.250Z,10.70
2018-06-10T19:18:17.414Z,11.88
2018-06-10T19:20:45.606Z,13.68
2018-06-10T19:23:13.774Z,16.40
2018-06-10T19:25:41.962Z,13.10
2018-06-10T19:28:10.166Z,14.78
2018-06-10T19:30:38.344Z,10.60
2018-06-10T19:33:06.507Z,12.50
2018-06-10T19:35:34.676Z,13.10
2018-06-10T19:38:02.821Z,9.43
2018-06-10T19:40:31.018Z,9.67
2018-06-10T19:42:59.173Z,14.70
2018-06-10T19:45:27.356Z,9.10
2018-06-10T19:47:55.521Z,12.70
2018-06-10T19:50:23.695Z,11.25
2018-06-10T19:52:51.838Z,10.82
2018-06-10T19:55:20.069Z,16.20
2018-06-10T19:57:48.242Z,13.55
2018-06-10T20:00:16.602Z,9.50
2018-06-10T20:02:44.774Z,9.50
2018-06-10T20:05:12.933Z,10.40
2018-06-10T20:07:41.081Z,9.60
2018-06-10T20:10:09.285Z,11.15
2018-06-10T20:12:37.446Z,8.60
2018-06-10T20:15:05.381Z,9.03
2018-06-10T20:17:33.518Z,8.80
2018-06-10T20:20:01.735Z,9.13
2018-06-10T20:22:29.868Z,11.48
2018-06-10T20:24:58.010Z,12.55
2018-06-10T20:27:26.173Z,8.20
2018-06-10T20:29:54.332Z,8.70
2018-06-10T20:32:22.490Z,8.03
2018-06-10T20:34:50.630Z,8.40
2018-06-10T20:37:18.794Z,9.57
2018-06-10T20:39:46.978Z,16.95
2018-06-10T20:42:15.142Z,8.48
2018-06-10T20:44:43.401Z,8.73
2018-06-10T20:47:11.560Z,8.10
2018-06-10T20:49:39.697Z,8.20
2018-06-10T20:52:07.622Z,13.60
2018-06-10T20:54:35.824Z,9.58
2018-06-10T20:57:03.942Z,13.43
2018-06-10T20:59:32.094Z,7.72
2018-06-10T21:02:00.250Z,9.73
2018-06-10T21:04:28.405Z,8.80
2018-06-10T21:06:56.549Z,13.07
2018-06-10T21:09:24.714Z,7.25
2018-06-10T21:11:52.882Z,9.05
2018-06-10T21:14:21.050Z,9.23
2018-06-10T21:16:49.194Z,7.28
2018-06-10T21:19:17.334Z,8.30
2018-06-10T21:21:45.493Z,7.15
2018-06-10T21:24:13.653Z,7.60
2018-06-10T21:26:41.810Z,7.58
2018-06-10T21:29:09.971Z,10.60
2018-06-10T21:31:38.117Z,7.50
2018-06-10T21:34:06.290Z,10.82
2018-06-10T21:36:34.445Z,13.50
2018-06-10T21:39:02.607Z,12.80
2018-06-10T21:41:30.764Z,8.30
2018-06-10T21:43:58.913Z,13.30
2018-06-10T21:46:27.073Z,11.30
2018-06-10T21:48:55.229Z,13.50
